OS67 weather

Mezzeh Airport
Mezzeh, Damascus Governorate, Syria

Public forecast

Using degrees Celsius for public forecast. Weather courtesy of forecast.io.

METAR (pilot weather report)

Closest report is Damascus International Airport, 15.2 nm (28.1 km) ESE. Retrieved 2019/08/19 17:00 UTC (21 minutes ago):

OSDI 191700Z 26012KT CAVOK 29/12 Q1011

TAF (pilot weather forecast)

Forecast is more than 6 hours old.

Closest forecast is Damascus International Airport, 15.2 nm (28.1 km) ESE. Retrieved 2019/08/19 06:36 UTC (11 hours ago):

TAF TAF OSDI 190315Z 1906/2012 22015KT CAVOK TEMPO 1909/1918 26015G 25KT 9999 FEW030